Time;durP1;ratioP1;P1;durP2;ratioP2;P2;SDS_P1;SDS_P2;PMS_P1;PMS_P2;Temp;Humidity;BMP_temperature;BMP_pressure;BME280_temperature;BME280_humidity;BME280_pressure;Samples;Min_cycle;Max_cycle;Signal;HPM_P1;HPM_P2
2022/03/02 00:00:48;;;;;;;15.65;9.35;;;;;;;;;;5062169;28;20055;-70
2022/03/02 00:03:13;;;;;;;15.68;9.30;;;;;;;;;;5041063;28;20028;-70
2022/03/02 00:05:38;;;;;;;20.65;10.10;;;;;;;;;;5063825;28;20027;-70
2022/03/02 00:08:04;;;;;;;15.82;10.05;;;;;;;;;;5041615;28;20565;-70
2022/03/02 00:10:29;;;;;;;21.77;9.18;;;;;;;;;;5063926;28;20107;-70
2022/03/02 00:12:54;;;;;;;18.60;9.63;;;;;;;;;;5040891;28;20063;-70
2022/03/02 00:15:19;;;;;;;16.65;9.27;;;;;;;;;;5041590;28;20077;-70
2022/03/02 00:17:45;;;;;;;17.98;8.80;;;;;;;;;;5065051;28;20095;-70
2022/03/02 00:20:10;;;;;;;16.60;8.80;;;;;;;;;;5041180;28;20175;-70
2022/03/02 00:22:36;;;;;;;18.55;8.93;;;;;;;;;;5064980;28;20024;-70
2022/03/02 00:25:01;;;;;;;15.63;8.05;;;;;;;;;;5064371;28;20028;-70
2022/03/02 00:27:27;;;;;;;21.70;9.50;;;;;;;;;;5064859;28;20028;-70
2022/03/02 00:29:52;;;;;;;18.30;9.73;;;;;;;;;;5064491;28;20036;-70
2022/03/02 00:32:17;;;;;;;13.80;8.52;;;;;;;;;;5046096;28;20542;-70
2022/03/02 00:34:43;;;;;;;16.58;8.70;;;;;;;;;;5045760;28;20016;-70
2022/03/02 00:37:08;;;;;;;15.80;8.35;;;;;;;;;;5047114;28;20020;-70
2022/03/02 00:39:33;;;;;;;15.15;9.23;;;;;;;;;;5063772;28;20028;-70
2022/03/02 00:41:58;;;;;;;15.73;8.30;;;;;;;;;;5064049;28;20107;-69
2022/03/02 00:44:24;;;;;;;16.38;8.15;;;;;;;;;;5064772;28;20020;-70
2022/03/02 00:46:49;;;;;;;22.42;8.70;;;;;;;;;;5062978;28;20024;-70
2022/03/02 00:49:14;;;;;;;16.45;8.20;;;;;;;;;;5062254;28;20024;-70
2022/03/02 00:51:40;;;;;;;16.55;7.75;;;;;;;;;;5027696;28;20020;-70
2022/03/02 00:54:05;;;;;;;14.23;7.95;;;;;;;;;;5062167;28;20013;-70
2022/03/02 00:56:30;;;;;;;14.32;8.05;;;;;;;;;;5064895;28;20023;-70
2022/03/02 00:58:56;;;;;;;13.98;7.85;;;;;;;;;;5064061;28;20024;-70
2022/03/02 01:01:21;;;;;;;13.65;7.60;;;;;;;;;;5063419;28;20425;-70
2022/03/02 01:03:46;;;;;;;16.60;8.57;;;;;;;;;;5064001;28;20016;-69
2022/03/02 01:06:11;;;;;;;15.13;8.27;;;;;;;;;;5063628;28;20028;-70
2022/03/02 01:08:36;;;;;;;14.43;7.95;;;;;;;;;;5064278;28;20021;-70
2022/03/02 01:11:02;;;;;;;16.33;7.57;;;;;;;;;;5064809;28;20020;-70
2022/03/02 01:13:27;;;;;;;13.25;7.57;;;;;;;;;;5064787;28;20025;-70
2022/03/02 01:15:52;;;;;;;12.50;7.30;;;;;;;;;;5044943;28;20020;-70
2022/03/02 01:18:17;;;;;;;13.77;7.30;;;;;;;;;;5063535;28;20031;-70
2022/03/02 01:20:43;;;;;;;15.23;7.32;;;;;;;;;;5063428;28;20017;-70
2022/03/02 01:23:09;;;;;;;10.38;6.65;;;;;;;;;;5042084;28;20513;-70
2022/03/02 01:25:34;;;;;;;13.05;7.38;;;;;;;;;;5039191;28;20021;-70
2022/03/02 01:28:00;;;;;;;13.35;7.10;;;;;;;;;;5062879;28;20032;-70
2022/03/02 01:30:25;;;;;;;12.95;7.32;;;;;;;;;;5062685;28;20037;-70
2022/03/02 01:32:50;;;;;;;13.82;8.20;;;;;;;;;;5041451;28;20034;-70
2022/03/02 01:35:15;;;;;;;14.43;7.43;;;;;;;;;;5064386;28;20025;-70
2022/03/02 01:37:40;;;;;;;15.38;7.53;;;;;;;;;;5063425;28;20485;-71
2022/03/02 01:40:09;;;;;;;13.70;7.80;;;;;;;;;;5062885;28;20106;-69
2022/03/02 01:42:34;;;;;;;12.15;6.78;;;;;;;;;;5042601;28;20024;-70
2022/03/02 01:45:00;;;;;;;12.07;6.95;;;;;;;;;;5062156;28;20062;-70
2022/03/02 01:47:27;;;;;;;15.90;7.47;;;;;;;;;;5064154;28;20029;-70
2022/03/02 01:49:52;;;;;;;14.02;7.03;;;;;;;;;;5064062;28;20115;-69
2022/03/02 01:52:17;;;;;;;15.63;7.35;;;;;;;;;;5062323;28;20103;-70
2022/03/02 01:54:42;;;;;;;13.00;7.68;;;;;;;;;;5027566;28;20389;-70
2022/03/02 01:57:08;;;;;;;12.80;7.40;;;;;;;;;;5061684;28;20070;-70
2022/03/02 01:59:33;;;;;;;13.10;7.15;;;;;;;;;;5041394;28;20024;-70
2022/03/02 02:01:58;;;;;;;17.67;8.65;;;;;;;;;;5062680;28;20098;-70
2022/03/02 02:04:23;;;;;;;14.07;7.97;;;;;;;;;;5041259;28;20067;-69
2022/03/02 02:06:49;;;;;;;15.23;8.45;;;;;;;;;;5039605;28;20025;-70
2022/03/02 02:09:14;;;;;;;14.95;8.05;;;;;;;;;;5063210;28;20047;-70
2022/03/02 02:11:39;;;;;;;14.15;7.93;;;;;;;;;;5045229;28;20028;-70
2022/03/02 02:14:04;;;;;;;17.77;7.38;;;;;;;;;;5039493;28;20055;-70
2022/03/02 02:16:30;;;;;;;13.57;7.15;;;;;;;;;;5039490;28;20070;-70
2022/03/02 02:18:55;;;;;;;14.45;8.43;;;;;;;;;;5039574;28;20032;-70
2022/03/02 02:21:20;;;;;;;13.70;7.57;;;;;;;;;;5045902;28;20070;-70
2022/03/02 02:23:45;;;;;;;17.13;7.50;;;;;;;;;;5062865;28;20021;-70
2022/03/02 02:26:11;;;;;;;14.18;8.02;;;;;;;;;;5038398;28;20056;-70
2022/03/02 02:28:36;;;;;;;11.02;6.78;;;;;;;;;;5061856;28;20543;-70
2022/03/02 02:31:01;;;;;;;13.40;7.47;;;;;;;;;;5037665;28;20485;-69
2022/03/02 02:33:27;;;;;;;16.23;8.15;;;;;;;;;;5063846;28;20484;-69
2022/03/02 02:35:52;;;;;;;17.20;7.43;;;;;;;;;;5062930;28;20021;-70
2022/03/02 02:38:17;;;;;;;15.00;7.30;;;;;;;;;;5064206;28;20024;-70
2022/03/02 02:40:42;;;;;;;12.60;7.13;;;;;;;;;;5063782;28;20160;-70
2022/03/02 02:43:08;;;;;;;15.38;8.10;;;;;;;;;;5064953;28;20028;-69
2022/03/02 02:45:33;;;;;;;13.93;7.90;;;;;;;;;;5044615;28;20038;-70
2022/03/02 02:47:58;;;;;;;17.75;7.57;;;;;;;;;;5048314;28;20058;-70
2022/03/02 02:50:26;;;;;;;14.98;8.05;;;;;;;;;;5048302;28;20066;-70
2022/03/02 02:52:51;;;;;;;19.05;8.18;;;;;;;;;;5065833;28;20111;-70
2022/03/02 02:55:17;;;;;;;16.92;8.05;;;;;;;;;;5066380;28;20609;-69
2022/03/02 02:57:42;;;;;;;19.67;9.40;;;;;;;;;;5067595;28;20052;-70
2022/03/02 03:00:08;;;;;;;17.92;8.57;;;;;;;;;;5040759;28;20078;-69
2022/03/02 03:02:34;;;;;;;17.42;8.82;;;;;;;;;;5066515;28;20033;-70
2022/03/02 03:04:59;;;;;;;16.65;8.05;;;;;;;;;;5065122;28;20016;-70
2022/03/02 03:07:24;;;;;;;17.80;7.68;;;;;;;;;;5065886;28;20024;-70
2022/03/02 03:09:49;;;;;;;14.65;7.35;;;;;;;;;;5047013;28;20043;-70
2022/03/02 03:12:14;;;;;;;18.25;8.05;;;;;;;;;;5066489;28;20032;-70
2022/03/02 03:14:40;;;;;;;15.00;8.18;;;;;;;;;;5065525;28;20047;-69
2022/03/02 03:17:05;;;;;;;19.20;7.70;;;;;;;;;;5065899;28;20028;-70
2022/03/02 03:19:30;;;;;;;14.60;7.88;;;;;;;;;;5065809;28;20596;-69
2022/03/02 03:22:01;;;;;;;12.23;7.25;;;;;;;;;;5066147;28;20075;-70
2022/03/02 03:24:26;;;;;;;13.77;7.85;;;;;;;;;;5066150;28;20028;-70
2022/03/02 03:26:52;;;;;;;14.68;8.15;;;;;;;;;;5041282;28;20028;-70
2022/03/02 03:29:17;;;;;;;15.27;7.80;;;;;;;;;;5065153;28;20234;-69
2022/03/02 03:31:42;;;;;;;10.25;7.20;;;;;;;;;;5063794;28;20101;-69
2022/03/02 03:34:07;;;;;;;14.60;7.78;;;;;;;;;;5065286;28;20083;-69
2022/03/02 03:36:32;;;;;;;14.30;7.57;;;;;;;;;;5066067;28;20024;-69
2022/03/02 03:38:58;;;;;;;14.65;8.10;;;;;;;;;;5065341;28;20127;-69
2022/03/02 03:41:23;;;;;;;14.88;7.07;;;;;;;;;;5049017;28;20091;-70
2022/03/02 03:43:49;;;;;;;19.33;7.95;;;;;;;;;;5066168;28;20111;-70
2022/03/02 03:46:14;;;;;;;11.23;6.55;;;;;;;;;;5065949;28;20029;-69
2022/03/02 03:48:39;;;;;;;12.40;6.25;;;;;;;;;;5065111;28;20020;-69
2022/03/02 03:51:06;;;;;;;13.93;7.45;;;;;;;;;;5065941;28;20031;-70
2022/03/02 03:53:31;;;;;;;14.48;7.15;;;;;;;;;;5065399;28;20020;-70
2022/03/02 03:55:57;;;;;;;12.30;6.60;;;;;;;;;;5063647;28;20013;-70
2022/03/02 03:58:22;;;;;;;14.75;7.53;;;;;;;;;;5045522;28;20129;-70
2022/03/02 04:00:47;;;;;;;12.02;6.75;;;;;;;;;;5064006;28;20041;-70
2022/03/02 04:03:13;;;;;;;11.52;7.22;;;;;;;;;;5065273;28;20111;-70
2022/03/02 04:05:38;;;;;;;18.10;7.38;;;;;;;;;;5063734;28;20029;-70
2022/03/02 04:08:03;;;;;;;16.13;7.03;;;;;;;;;;5062969;28;20868;-70
2022/03/02 04:10:29;;;;;;;14.02;7.20;;;;;;;;;;5064384;28;20070;-69
2022/03/02 04:12:54;;;;;;;14.18;7.38;;;;;;;;;;5065133;28;20544;-70
2022/03/02 04:15:19;;;;;;;14.68;7.43;;;;;;;;;;5063522;28;20038;-70
2022/03/02 04:17:46;;;;;;;17.70;6.35;;;;;;;;;;5064889;28;20036;-69
2022/03/02 04:20:11;;;;;;;11.68;6.20;;;;;;;;;;5063145;28;20081;-70
2022/03/02 04:22:37;;;;;;;12.52;6.20;;;;;;;;;;5064600;28;20427;-69
2022/03/02 04:25:02;;;;;;;13.95;6.95;;;;;;;;;;5064143;28;20025;-69
2022/03/02 04:27:28;;;;;;;12.05;6.80;;;;;;;;;;5042207;28;20165;-70
2022/03/02 04:29:53;;;;;;;15.23;7.05;;;;;;;;;;5064141;28;20050;-70
2022/03/02 04:32:18;;;;;;;13.95;6.63;;;;;;;;;;5063672;28;20089;-69
2022/03/02 04:34:43;;;;;;;28.60;6.82;;;;;;;;;;5029194;28;20484;-69
2022/03/02 04:37:08;;;;;;;13.43;6.55;;;;;;;;;;5063776;28;20028;-70
2022/03/02 04:39:34;;;;;;;12.75;6.45;;;;;;;;;;5064251;28;20036;-70
2022/03/02 04:41:59;;;;;;;9.27;6.15;;;;;;;;;;5064069;28;20056;-70
2022/03/02 04:44:24;;;;;;;10.68;6.68;;;;;;;;;;5063522;28;20036;-69
2022/03/02 04:46:51;;;;;;;13.70;7.40;;;;;;;;;;5065023;28;20024;-70
2022/03/02 04:49:18;;;;;;;18.73;7.55;;;;;;;;;;5062845;28;20016;-70
2022/03/02 04:51:43;;;;;;;14.77;7.25;;;;;;;;;;5045570;28;20496;-69
2022/03/02 04:54:08;;;;;;;11.55;6.82;;;;;;;;;;5063508;28;20048;-70
2022/03/02 04:56:34;;;;;;;12.75;7.00;;;;;;;;;;5063495;28;20020;-69
2022/03/02 04:59:01;;;;;;;11.70;6.53;;;;;;;;;;5063214;28;20035;-70
2022/03/02 05:01:27;;;;;;;15.60;6.93;;;;;;;;;;5044276;28;20040;-69
2022/03/02 05:03:52;;;;;;;13.52;7.00;;;;;;;;;;5044450;28;21898;-69
2022/03/02 05:06:17;;;;;;;11.35;6.72;;;;;;;;;;5062064;28;20024;-70
2022/03/02 05:08:42;;;;;;;13.07;7.05;;;;;;;;;;5062187;28;20071;-69
2022/03/02 05:11:07;;;;;;;13.15;7.07;;;;;;;;;;5062960;28;20385;-70
2022/03/02 05:13:34;;;;;;;11.77;6.40;;;;;;;;;;5063279;28;20536;-70
2022/03/02 05:15:59;;;;;;;12.70;6.60;;;;;;;;;;5063414;28;20024;-70
2022/03/02 05:18:25;;;;;;;11.35;6.85;;;;;;;;;;5042371;28;20631;-70
2022/03/02 05:20:50;;;;;;;11.30;6.43;;;;;;;;;;5062999;28;20020;-70
2022/03/02 05:23:15;;;;;;;10.07;6.53;;;;;;;;;;5064591;28;20040;-70
2022/03/02 05:25:40;;;;;;;12.70;6.50;;;;;;;;;;5062091;28;20045;-70
2022/03/02 05:28:06;;;;;;;13.55;6.65;;;;;;;;;;5064251;28;20028;-70
2022/03/02 05:30:31;;;;;;;14.40;6.53;;;;;;;;;;5062828;28;20033;-70
2022/03/02 05:32:56;;;;;;;12.85;6.93;;;;;;;;;;5063299;28;20661;-70
2022/03/02 05:35:21;;;;;;;11.77;6.60;;;;;;;;;;5063296;28;20047;-70
2022/03/02 05:37:47;;;;;;;16.58;6.55;;;;;;;;;;5064278;28;20070;-69
2022/03/02 05:40:13;;;;;;;11.63;6.18;;;;;;;;;;5041266;28;20656;-70
2022/03/02 05:42:38;;;;;;;10.40;6.03;;;;;;;;;;5062712;28;20069;-70
2022/03/02 05:45:03;;;;;;;16.60;6.53;;;;;;;;;;5045215;28;20572;-71
2022/03/02 05:47:29;;;;;;;12.10;6.60;;;;;;;;;;5041600;28;20397;-70
2022/03/02 05:49:54;;;;;;;11.70;6.55;;;;;;;;;;5062785;28;20054;-70
2022/03/02 05:52:19;;;;;;;10.90;6.38;;;;;;;;;;5041555;28;20052;-70
2022/03/02 05:54:44;;;;;;;10.15;6.20;;;;;;;;;;5061954;28;20036;-70
2022/03/02 05:57:10;;;;;;;13.95;6.32;;;;;;;;;;5064137;28;20037;-70
2022/03/02 05:59:35;;;;;;;17.23;6.65;;;;;;;;;;5062045;28;21368;-71
2022/03/02 06:02:00;;;;;;;13.65;6.55;;;;;;;;;;5060380;28;20032;-71
2022/03/02 06:04:25;;;;;;;12.88;6.90;;;;;;;;;;5042310;28;20031;-71
2022/03/02 06:06:51;;;;;;;8.85;5.68;;;;;;;;;;5044105;28;20473;-71
2022/03/02 06:09:16;;;;;;;10.07;5.88;;;;;;;;;;5044564;28;20028;-71
2022/03/02 06:11:43;;;;;;;13.77;6.53;;;;;;;;;;5064925;28;20082;-71
2022/03/02 06:14:09;;;;;;;11.38;5.80;;;;;;;;;;5031469;28;20067;-71
2022/03/02 06:16:34;;;;;;;12.05;6.00;;;;;;;;;;5066825;28;20048;-71
2022/03/02 06:18:59;;;;;;;11.15;5.80;;;;;;;;;;5066872;28;20107;-71
2022/03/02 06:21:25;;;;;;;11.05;5.95;;;;;;;;;;5045293;28;20023;-71
2022/03/02 06:23:51;;;;;;;11.68;5.72;;;;;;;;;;5068678;28;20852;-70
2022/03/02 06:26:18;;;;;;;10.77;5.88;;;;;;;;;;5045307;28;20063;-71
2022/03/02 06:28:43;;;;;;;14.30;5.63;;;;;;;;;;5066167;28;20527;-70
2022/03/02 06:31:08;;;;;;;12.48;5.70;;;;;;;;;;5066567;28;20044;-70
2022/03/02 06:33:34;;;;;;;10.75;5.45;;;;;;;;;;5066147;28;20023;-70
2022/03/02 06:35:59;;;;;;;14.13;6.57;;;;;;;;;;5066151;28;20032;-70
2022/03/02 06:38:24;;;;;;;12.30;6.18;;;;;;;;;;5045108;28;20028;-70
2022/03/02 06:41:03;;;;;;;11.52;6.40;;;;;;;;;;5066762;28;20048;-70
2022/03/02 06:43:35;;;;;;;12.13;6.80;;;;;;;;;;5067902;28;20362;-70
2022/03/02 06:46:05;;;;;;;13.73;6.18;;;;;;;;;;5044689;28;20064;-70
2022/03/02 06:48:32;;;;;;;13.95;6.30;;;;;;;;;;5067273;28;20059;-70
2022/03/02 06:50:58;;;;;;;10.77;6.10;;;;;;;;;;5067383;28;20094;-70
2022/03/02 06:53:31;;;;;;;10.60;6.03;;;;;;;;;;5045191;28;20035;-70
2022/03/02 06:55:57;;;;;;;14.25;5.70;;;;;;;;;;5047800;28;20374;-70
2022/03/02 06:58:22;;;;;;;13.68;6.25;;;;;;;;;;5044303;28;20040;-70
2022/03/02 07:00:52;;;;;;;11.38;5.78;;;;;;;;;;5066493;28;20425;-71
2022/03/02 07:03:18;;;;;;;13.55;6.32;;;;;;;;;;5066279;28;20025;-70
2022/03/02 07:05:44;;;;;;;10.82;6.40;;;;;;;;;;5066517;28;20074;-70
2022/03/02 07:08:09;;;;;;;8.50;5.30;;;;;;;;;;5066610;28;20115;-71
2022/03/02 07:10:35;;;;;;;10.93;5.50;;;;;;;;;;5067039;28;20046;-71
2022/03/02 07:13:01;;;;;;;12.95;6.32;;;;;;;;;;5044801;28;20040;-71
2022/03/02 07:15:27;;;;;;;13.77;5.95;;;;;;;;;;5066843;28;20107;-71
2022/03/02 07:17:52;;;;;;;15.13;5.28;;;;;;;;;;5048582;28;20107;-71
2022/03/02 07:20:17;;;;;;;8.98;4.60;;;;;;;;;;5031463;28;20481;-71
2022/03/02 07:22:46;;;;;;;10.13;5.10;;;;;;;;;;5065540;28;20032;-71
2022/03/02 07:25:21;;;;;;;10.23;5.72;;;;;;;;;;5065875;28;20449;-71
2022/03/02 07:27:46;;;;;;;8.68;5.68;;;;;;;;;;5065910;28;20512;-71
2022/03/02 07:30:12;;;;;;;13.68;6.13;;;;;;;;;;5065111;28;20029;-71
2022/03/02 07:32:41;;;;;;;14.98;7.13;;;;;;;;;;5065910;28;20704;-71
2022/03/02 07:35:06;;;;;;;12.30;6.18;;;;;;;;;;5047927;28;20035;-71
2022/03/02 07:37:31;;;;;;;12.52;5.35;;;;;;;;;;5065487;28;20024;-71
2022/03/02 07:39:56;;;;;;;9.10;5.25;;;;;;;;;;5064158;28;20029;-70
2022/03/02 07:42:22;;;;;;;10.27;5.32;;;;;;;;;;5065572;28;20042;-71
2022/03/02 07:44:48;;;;;;;10.00;5.55;;;;;;;;;;5047524;28;20033;-71
2022/03/02 07:47:13;;;;;;;9.07;5.13;;;;;;;;;;5042608;28;20024;-70
2022/03/02 07:49:38;;;;;;;8.32;5.03;;;;;;;;;;5043192;28;20089;-70
2022/03/02 07:52:05;;;;;;;9.68;5.07;;;;;;;;;;5065819;28;20017;-70
2022/03/02 07:54:30;;;;;;;10.00;5.68;;;;;;;;;;5042903;28;20020;-71
2022/03/02 07:56:55;;;;;;;10.18;5.88;;;;;;;;;;5043383;28;20066;-71
2022/03/02 07:59:21;;;;;;;11.18;5.80;;;;;;;;;;5043032;28;20052;-71
2022/03/02 08:01:46;;;;;;;9.98;5.43;;;;;;;;;;5063956;28;20086;-71
2022/03/02 08:04:11;;;;;;;10.48;6.13;;;;;;;;;;5043049;28;20032;-71
2022/03/02 08:06:37;;;;;;;12.10;6.55;;;;;;;;;;5065087;28;20033;-70
2022/03/02 08:09:03;;;;;;;10.45;6.10;;;;;;;;;;5065385;28;20424;-71
2022/03/02 08:11:28;;;;;;;9.15;5.63;;;;;;;;;;5065173;28;20035;-70
2022/03/02 08:13:53;;;;;;;8.55;5.20;;;;;;;;;;5047517;28;20072;-70
2022/03/02 08:16:19;;;;;;;10.27;5.65;;;;;;;;;;5046737;28;20079;-72
2022/03/02 08:18:44;;;;;;;9.25;5.82;;;;;;;;;;5064492;28;20488;-71
2022/03/02 08:21:09;;;;;;;10.30;6.03;;;;;;;;;;5065959;28;20031;-71
2022/03/02 08:23:36;;;;;;;8.27;5.20;;;;;;;;;;5042653;28;20051;-71
2022/03/02 08:26:01;;;;;;;9.55;5.75;;;;;;;;;;5065479;28;20036;-72
2022/03/02 08:28:26;;;;;;;13.80;5.35;;;;;;;;;;5064419;28;20028;-71
2022/03/02 08:30:52;;;;;;;10.63;4.70;;;;;;;;;;5064380;28;20527;-72
2022/03/02 08:33:25;;;;;;;7.82;4.35;;;;;;;;;;5043358;28;20020;-72
2022/03/02 08:35:50;;;;;;;11.10;5.10;;;;;;;;;;5042872;28;20020;-71
2022/03/02 08:38:15;;;;;;;11.30;4.28;;;;;;;;;;5043004;28;20070;-72
2022/03/02 08:40:41;;;;;;;9.80;4.32;;;;;;;;;;5042797;28;20104;-71
2022/03/02 08:43:06;;;;;;;6.22;3.80;;;;;;;;;;5065325;28;20028;-72
2022/03/02 08:45:31;;;;;;;10.27;4.40;;;;;;;;;;5065219;28;20028;-72
2022/03/02 08:47:57;;;;;;;6.38;3.83;;;;;;;;;;5042114;28;20032;-72
2022/03/02 08:50:22;;;;;;;9.63;3.80;;;;;;;;;;5064732;28;20032;-72
2022/03/02 08:52:48;;;;;;;8.00;3.78;;;;;;;;;;5064555;28;20119;-72
2022/03/02 08:55:13;;;;;;;7.88;3.72;;;;;;;;;;5042401;28;20082;-71
2022/03/02 08:57:42;;;;;;;9.35;3.55;;;;;;;;;;5064327;28;20024;-72
2022/03/02 09:00:07;;;;;;;11.23;3.67;;;;;;;;;;5064073;28;20111;-72
2022/03/02 09:02:32;;;;;;;5.88;4.38;;;;;;;;;;5042154;28;20124;-71
2022/03/02 09:05:01;;;;;;;8.88;4.45;;;;;;;;;;5041863;28;20017;-72
2022/03/02 09:07:26;;;;;;;6.78;4.32;;;;;;;;;;5064585;28;20106;-71
2022/03/02 09:09:51;;;;;;;7.20;4.40;;;;;;;;;;5064331;28;20184;-72
2022/03/02 09:12:18;;;;;;;7.75;4.22;;;;;;;;;;5063631;28;20032;-71
2022/03/02 09:14:43;;;;;;;7.45;4.05;;;;;;;;;;5063412;28;20016;-71
2022/03/02 09:17:08;;;;;;;9.98;4.97;;;;;;;;;;5064948;28;20472;-71
2022/03/02 09:19:33;;;;;;;9.95;4.78;;;;;;;;;;5064493;28;20031;-72
2022/03/02 09:21:58;;;;;;;8.48;4.60;;;;;;;;;;5045675;28;20066;-72
2022/03/02 09:24:25;;;;;;;9.88;5.10;;;;;;;;;;5066183;28;20024;-72
2022/03/02 09:26:50;;;;;;;8.93;4.85;;;;;;;;;;5041427;28;20033;-72
2022/03/02 09:29:15;;;;;;;7.30;4.63;;;;;;;;;;5042537;28;20400;-72
2022/03/02 09:31:44;;;;;;;7.05;4.35;;;;;;;;;;5062632;28;20047;-72
2022/03/02 09:34:10;;;;;;;8.25;4.57;;;;;;;;;;5042624;28;20123;-72
2022/03/02 09:36:38;;;;;;;8.32;4.75;;;;;;;;;;5064681;28;20095;-71
2022/03/02 09:39:04;;;;;;;6.72;4.75;;;;;;;;;;5045309;28;20084;-71
2022/03/02 09:41:31;;;;;;;12.10;5.28;;;;;;;;;;5042497;28;20021;-72
2022/03/02 09:43:57;;;;;;;8.45;4.95;;;;;;;;;;5041162;28;20039;-72
2022/03/02 09:46:30;;;;;;;6.93;4.57;;;;;;;;;;5065349;28;20111;-71
2022/03/02 09:48:55;;;;;;;7.05;4.35;;;;;;;;;;5048337;28;20032;-72
2022/03/02 09:51:22;;;;;;;12.13;4.35;;;;;;;;;;5050364;28;20085;-72
2022/03/02 09:53:48;;;;;;;5.95;4.30;;;;;;;;;;5049247;28;20036;-72
2022/03/02 09:56:13;;;;;;;5.53;3.88;;;;;;;;;;5067618;28;20016;-72
2022/03/02 09:58:39;;;;;;;6.88;4.20;;;;;;;;;;5044780;28;20495;-72
2022/03/02 10:01:05;;;;;;;7.28;3.72;;;;;;;;;;5066932;28;20020;-72
2022/03/02 10:03:34;;;;;;;5.07;3.63;;;;;;;;;;5045454;28;20020;-72
2022/03/02 10:06:01;;;;;;;6.72;3.90;;;;;;;;;;5067448;28;20051;-72
2022/03/02 10:08:30;;;;;;;12.88;6.53;;;;;;;;;;5046589;28;20107;-72
2022/03/02 10:10:55;;;;;;;13.48;7.10;;;;;;;;;;5046796;28;20472;-72
2022/03/02 10:13:22;;;;;;;11.70;6.57;;;;;;;;;;5053240;28;20020;-71
2022/03/02 10:15:47;;;;;;;10.93;5.90;;;;;;;;;;5065743;28;20012;-71
2022/03/02 10:18:12;;;;;;;7.72;4.75;;;;;;;;;;5067843;28;20029;-72
2022/03/02 10:20:40;;;;;;;6.43;4.25;;;;;;;;;;5067839;28;20082;-71
2022/03/02 10:23:14;;;;;;;6.47;4.35;;;;;;;;;;5033154;28;20020;-72
2022/03/02 10:25:58;;;;;;;5.40;4.18;;;;;;;;;;5066494;28;20036;-72
2022/03/02 10:28:30;;;;;;;6.47;4.15;;;;;;;;;;5067169;28;20127;-71
2022/03/02 10:31:23;;;;;;;9.20;4.40;;;;;;;;;;5066117;28;20508;-71
2022/03/02 10:33:53;;;;;;;4.72;3.60;;;;;;;;;;5044166;28;20421;-72
2022/03/02 10:36:19;;;;;;;4.05;3.25;;;;;;;;;;5044860;28;20040;-72
2022/03/02 10:38:54;;;;;;;7.97;4.47;;;;;;;;;;5017709;28;20104;-72
2022/03/02 10:41:20;;;;;;;8.25;5.13;;;;;;;;;;5048588;28;20024;-72
2022/03/02 10:44:05;;;;;;;6.45;4.50;;;;;;;;;;5067271;28;20032;-72
2022/03/02 10:46:30;;;;;;;7.60;4.97;;;;;;;;;;5066871;28;20424;-72
2022/03/02 10:48:59;;;;;;;11.35;5.85;;;;;;;;;;5031511;28;20029;-72
2022/03/02 10:51:24;;;;;;;9.57;5.45;;;;;;;;;;5050049;28;20046;-72
2022/03/02 10:53:50;;;;;;;8.63;5.68;;;;;;;;;;5049201;28;20036;-72
2022/03/02 10:56:17;;;;;;;10.70;5.22;;;;;;;;;;5049323;28;20016;-72
2022/03/02 10:58:44;;;;;;;5.28;4.10;;;;;;;;;;5032096;28;20031;-72
2022/03/02 11:01:11;;;;;;;5.88;3.63;;;;;;;;;;5029412;28;20969;-72
2022/03/02 11:03:37;;;;;;;5.30;3.75;;;;;;;;;;5067441;28;20502;-72
2022/03/02 11:06:03;;;;;;;7.47;4.60;;;;;;;;;;5048426;28;20024;-72
2022/03/02 11:08:29;;;;;;;6.55;4.40;;;;;;;;;;5066482;28;20071;-72
2022/03/02 11:10:55;;;;;;;5.35;3.90;;;;;;;;;;5044991;28;20468;-72
2022/03/02 11:13:20;;;;;;;4.72;3.97;;;;;;;;;;5048297;28;20017;-72
2022/03/02 11:15:51;;;;;;;5.45;4.30;;;;;;;;;;5028448;28;20027;-72
2022/03/02 11:18:17;;;;;;;5.35;4.20;;;;;;;;;;5066284;28;20020;-72
2022/03/02 11:21:17;;;;;;;4.30;3.50;;;;;;;;;;5045062;28;20012;-72
2022/03/02 11:23:49;;;;;;;6.78;4.43;;;;;;;;;;5050960;28;20054;-72
2022/03/02 11:26:16;;;;;;;5.25;3.80;;;;;;;;;;5066650;28;20120;-71
2022/03/02 11:28:46;;;;;;;6.53;3.88;;;;;;;;;;5045998;28;20058;-71
2022/03/02 11:31:11;;;;;;;5.35;3.92;;;;;;;;;;5065334;28;20048;-72
2022/03/02 11:33:37;;;;;;;8.32;3.67;;;;;;;;;;5062985;28;20013;-72
2022/03/02 11:36:11;;;;;;;4.75;3.63;;;;;;;;;;5065117;28;20039;-71
2022/03/02 11:38:39;;;;;;;6.13;4.15;;;;;;;;;;5065130;28;20580;-71
2022/03/02 11:41:05;;;;;;;7.13;4.07;;;;;;;;;;5065226;28;20683;-72
2022/03/02 11:43:31;;;;;;;4.03;3.50;;;;;;;;;;5065106;28;20016;-72
2022/03/02 11:46:04;;;;;;;4.82;3.72;;;;;;;;;;5043275;28;20179;-71
2022/03/02 11:48:31;;;;;;;3.95;3.30;;;;;;;;;;5065925;28;20112;-71
2022/03/02 11:51:11;;;;;;;4.55;3.50;;;;;;;;;;5065337;28;20056;-71
2022/03/02 11:53:45;;;;;;;4.32;3.00;;;;;;;;;;5048581;28;20067;-71
2022/03/02 11:56:12;;;;;;;4.78;3.17;;;;;;;;;;5046826;28;20029;-71
2022/03/02 11:59:07;;;;;;;4.18;3.28;;;;;;;;;;5042627;28;20086;-71
2022/03/02 12:01:39;;;;;;;4.65;3.28;;;;;;;;;;5042514;28;20159;-70
2022/03/02 12:04:06;;;;;;;4.75;3.28;;;;;;;;;;5044419;28;20020;-73
2022/03/02 12:06:42;;;;;;;8.18;3.50;;;;;;;;;;5042056;28;20016;-72
2022/03/02 12:09:07;;;;;;;4.55;3.67;;;;;;;;;;5064584;28;20174;-72
2022/03/02 12:11:34;;;;;;;5.25;3.85;;;;;;;;;;5065204;28;20111;-72
2022/03/02 12:14:04;;;;;;;5.63;3.95;;;;;;;;;;5042594;28;20067;-73
2022/03/02 12:16:42;;;;;;;6.13;4.05;;;;;;;;;;5065630;28;20477;-72
2022/03/02 12:19:24;;;;;;;4.88;3.70;;;;;;;;;;5046340;28;20020;-73
2022/03/02 12:21:52;;;;;;;4.45;3.55;;;;;;;;;;5043711;28;20409;-72
2022/03/02 12:24:29;;;;;;;6.47;4.18;;;;;;;;;;5065221;28;20028;-72
2022/03/02 12:27:05;;;;;;;5.90;4.03;;;;;;;;;;5065488;28;20477;-72
2022/03/02 12:29:31;;;;;;;6.00;4.40;;;;;;;;;;5046245;28;20086;-71
2022/03/02 12:32:25;;;;;;;9.50;4.07;;;;;;;;;;5062180;28;20501;-71
2022/03/02 12:34:51;;;;;;;6.47;3.92;;;;;;;;;;5062705;28;20117;-72
2022/03/02 12:37:17;;;;;;;7.10;4.40;;;;;;;;;;5047184;28;20013;-72
2022/03/02 12:39:42;;;;;;;5.90;4.80;;;;;;;;;;5064816;28;20028;-72
2022/03/02 12:42:08;;;;;;;6.07;4.60;;;;;;;;;;5047722;28;20031;-72
2022/03/02 12:44:38;;;;;;;6.28;4.25;;;;;;;;;;5045859;28;20022;-72
2022/03/02 12:47:06;;;;;;;7.82;4.88;;;;;;;;;;5028001;28;20024;-72
2022/03/02 12:49:32;;;;;;;7.70;4.78;;;;;;;;;;5046744;28;20107;-72
2022/03/02 12:51:57;;;;;;;6.30;4.40;;;;;;;;;;5035226;28;20128;-72
2022/03/02 12:54:23;;;;;;;5.72;4.38;;;;;;;;;;5046156;28;20013;-71
2022/03/02 12:56:48;;;;;;;5.40;4.20;;;;;;;;;;5046066;28;20534;-71
2022/03/02 12:59:14;;;;;;;5.68;4.38;;;;;;;;;;5046127;28;20052;-72
2022/03/02 13:01:39;;;;;;;7.65;4.60;;;;;;;;;;5063113;28;20455;-72
2022/03/02 13:04:05;;;;;;;14.10;4.95;;;;;;;;;;5041036;28;20028;-72
2022/03/02 13:06:30;;;;;;;7.50;4.70;;;;;;;;;;5026822;28;20099;-71
2022/03/02 13:09:04;;;;;;;6.18;4.10;;;;;;;;;;5027104;28;20024;-71
2022/03/02 13:11:33;;;;;;;7.43;4.55;;;;;;;;;;5042520;28;20028;-72
2022/03/02 13:13:58;;;;;;;7.57;4.60;;;;;;;;;;5063212;28;20630;-71
2022/03/02 13:16:25;;;;;;;6.43;4.60;;;;;;;;;;5041645;28;20017;-72
2022/03/02 13:18:51;;;;;;;6.38;4.60;;;;;;;;;;5029376;28;20109;-73
2022/03/02 13:21:24;;;;;;;5.70;4.47;;;;;;;;;;5029388;28;20035;-73
2022/03/02 13:24:05;;;;;;;7.18;4.55;;;;;;;;;;5029451;28;20028;-71
2022/03/02 13:26:32;;;;;;;5.43;4.40;;;;;;;;;;5041940;28;20020;-73
2022/03/02 13:28:59;;;;;;;5.93;4.60;;;;;;;;;;5063666;28;20047;-73
2022/03/02 13:31:25;;;;;;;7.85;4.80;;;;;;;;;;5062353;28;20037;-72
2022/03/02 13:34:04;;;;;;;6.68;4.82;;;;;;;;;;5041400;28;20052;-72
2022/03/02 13:36:36;;;;;;;5.03;4.43;;;;;;;;;;5041282;28;20021;-72
2022/03/02 13:39:22;;;;;;;7.30;4.45;;;;;;;;;;5064506;28;20028;-72
2022/03/02 13:41:59;;;;;;;5.70;4.75;;;;;;;;;;5029393;28;20009;-72
2022/03/02 13:44:27;;;;;;;7.10;4.38;;;;;;;;;;5064321;28;20021;-72
2022/03/02 13:47:08;;;;;;;6.88;4.50;;;;;;;;;;5063870;28;20031;-72
2022/03/02 13:49:57;;;;;;;6.82;4.50;;;;;;;;;;5046111;28;20029;-72
2022/03/02 13:52:28;;;;;;;6.75;4.28;;;;;;;;;;5039714;28;20369;-72
2022/03/02 13:54:58;;;;;;;5.10;4.60;;;;;;;;;;5063529;28;20473;-72
2022/03/02 13:57:28;;;;;;;6.13;4.28;;;;;;;;;;5046322;28;20108;-72
2022/03/02 14:00:18;;;;;;;8.73;4.60;;;;;;;;;;5044799;28;20067;-72
2022/03/02 14:02:43;;;;;;;5.53;4.43;;;;;;;;;;5063245;28;20405;-71
2022/03/02 14:05:08;;;;;;;12.70;4.80;;;;;;;;;;5064276;28;20044;-71
2022/03/02 14:07:35;;;;;;;7.55;4.28;;;;;;;;;;5062796;28;20027;-71
2022/03/02 14:10:05;;;;;;;9.45;4.20;;;;;;;;;;5063719;28;20107;-72
2022/03/02 14:12:30;;;;;;;8.40;4.70;;;;;;;;;;5042646;28;20036;-72
2022/03/02 14:15:10;;;;;;;7.55;4.72;;;;;;;;;;5063807;28;20508;-71
2022/03/02 14:17:36;;;;;;;9.95;4.25;;;;;;;;;;5063388;28;20015;-72
2022/03/02 14:20:01;;;;;;;6.70;3.95;;;;;;;;;;5029421;28;20021;-72
2022/03/02 14:22:26;;;;;;;6.22;4.07;;;;;;;;;;5063418;28;20108;-72
2022/03/02 14:24:52;;;;;;;8.13;4.95;;;;;;;;;;5063278;28;20032;-72
2022/03/02 14:27:17;;;;;;;5.85;4.45;;;;;;;;;;5063270;28;20171;-72
2022/03/02 14:30:00;;;;;;;5.95;4.20;;;;;;;;;;5063239;28;20493;-71
2022/03/02 14:32:45;;;;;;;4.68;3.72;;;;;;;;;;5063134;28;20521;-71
2022/03/02 14:35:12;;;;;;;5.75;4.20;;;;;;;;;;5031313;28;20063;-71